Time;durP1;ratioP1;P1;durP2;ratioP2;P2;SDS_P1;SDS_P2;PMS_P1;PMS_P2;Temp;Humidity;BMP_temperature;BMP_pressure;BME280_temperature;BME280_humidity;BME280_pressure;Samples;Min_cycle;Max_cycle;Signal;HPM_P1;HPM_P2
2020/12/05 00:01:13;;;;;;;26.97;18.53;;;5.40;99.90;;;;;;5035015;28;20222;-59
2020/12/05 00:03:40;;;;;;;27.90;19.27;;;5.40;99.90;;;;;;5034650;28;20206;-60
2020/12/05 00:06:07;;;;;;;28.83;18.87;;;5.50;99.90;;;;;;5034755;28;20652;-60
2020/12/05 00:08:34;;;;;;;26.47;18.27;;;5.50;99.90;;;;;;5034322;28;20206;-59
2020/12/05 00:11:00;;;;;;;31.87;18.63;;;5.50;99.90;;;;;;5034549;28;20202;-59
2020/12/05 00:13:26;;;;;;;29.40;18.80;;;5.50;99.90;;;;;;5034730;28;20210;-59
2020/12/05 00:15:52;;;;;;;27.40;18.37;;;5.50;99.90;;;;;;5034650;28;20237;-60
2020/12/05 00:18:19;;;;;;;31.83;19.20;;;5.60;99.90;;;;;;5034301;28;20503;-60
2020/12/05 00:20:45;;;;;;;30.73;20.43;;;5.60;99.90;;;;;;5034531;28;20207;-60
2020/12/05 00:23:13;;;;;;;28.07;19.57;;;5.50;99.90;;;;;;5034571;28;20206;-60
2020/12/05 00:25:39;;;;;;;31.63;19.67;;;5.50;99.90;;;;;;5033878;28;20790;-59
2020/12/05 00:28:05;;;;;;;28.43;19.13;;;5.50;99.90;;;;;;5033975;28;20206;-60
2020/12/05 00:30:33;;;;;;;29.97;19.57;;;5.50;99.90;;;;;;5034042;28;20230;-60
2020/12/05 00:33:01;;;;;;;29.30;18.90;;;5.50;99.90;;;;;;5034307;28;20217;-59
2020/12/05 00:35:28;;;;;;;26.87;18.40;;;5.50;99.90;;;;;;5034041;28;20230;-59
2020/12/05 00:37:54;;;;;;;28.53;19.00;;;5.50;99.90;;;;;;5033806;28;20214;-59
2020/12/05 00:40:21;;;;;;;25.57;18.47;;;5.50;99.90;;;;;;5034204;28;20202;-60
2020/12/05 00:42:48;;;;;;;29.67;18.50;;;5.60;99.90;;;;;;5033779;28;20617;-59
2020/12/05 00:45:14;;;;;;;30.13;18.97;;;5.50;99.90;;;;;;5033912;28;20218;-59
2020/12/05 00:47:40;;;;;;;30.23;19.60;;;5.50;99.90;;;;;;5033884;28;20202;-60
2020/12/05 00:50:07;;;;;;;29.70;19.63;;;5.50;99.90;;;;;;5033920;28;20226;-59
2020/12/05 00:52:33;;;;;;;29.87;20.07;;;5.60;99.90;;;;;;5033938;28;20214;-63
2020/12/05 00:54:59;;;;;;;28.63;20.00;;;5.60;99.90;;;;;;5033532;28;20210;-61
2020/12/05 00:57:27;;;;;;;26.33;18.20;;;5.60;99.90;;;;;;5033728;28;20240;-62
2020/12/05 00:59:53;;;;;;;30.27;19.50;;;5.60;99.90;;;;;;5033002;28;20207;-59
2020/12/05 01:02:23;;;;;;;30.67;18.90;;;5.60;99.90;;;;;;5033728;28;20206;-60
2020/12/05 01:04:50;;;;;;;28.00;18.43;;;5.40;99.90;;;;;;5033598;28;20250;-60
2020/12/05 01:07:20;;;;;;;28.63;18.60;;;5.50;99.90;;;;;;5033992;28;20233;-60
2020/12/05 01:09:46;;;;;;;29.20;18.60;;;5.40;99.90;;;;;;5033139;28;20766;-59
2020/12/05 01:12:12;;;;;;;28.70;18.50;;;5.30;99.90;;;;;;5033421;28;20305;-60
2020/12/05 01:14:39;;;;;;;30.43;19.83;;;5.40;99.90;;;;;;5033420;28;20271;-60
2020/12/05 01:17:05;;;;;;;27.73;19.10;;;5.40;99.90;;;;;;5033317;28;20586;-60
2020/12/05 01:19:31;;;;;;;28.17;18.80;;;5.50;99.90;;;;;;5033243;28;20210;-60
2020/12/05 01:21:58;;;;;;;28.30;19.40;;;5.50;99.90;;;;;;5033656;28;20203;-61
2020/12/05 01:24:24;;;;;;;28.00;18.33;;;5.60;99.90;;;;;;5032898;28;20206;-59
2020/12/05 01:26:50;;;;;;;29.53;19.10;;;5.60;99.90;;;;;;5033491;28;20222;-59
2020/12/05 01:29:16;;;;;;;30.30;19.43;;;5.70;99.90;;;;;;5032990;28;20234;-59
2020/12/05 01:31:47;;;;;;;31.87;19.40;;;5.70;99.90;;;;;;5033162;28;20666;-60
2020/12/05 01:34:13;;;;;;;27.33;18.90;;;5.80;99.90;;;;;;5032915;28;20210;-60
2020/12/05 01:36:43;;;;;;;31.53;19.43;;;5.80;99.90;;;;;;5032918;28;20738;-59
2020/12/05 01:39:09;;;;;;;32.27;20.27;;;5.80;99.90;;;;;;5032531;28;20504;-59
2020/12/05 01:41:35;;;;;;;27.00;18.57;;;5.80;99.90;;;;;;5033106;28;20673;-60
2020/12/05 01:44:02;;;;;;;27.13;17.67;;;5.80;99.90;;;;;;5032415;28;20563;-59
2020/12/05 01:46:36;;;;;;;27.23;19.17;;;5.90;99.90;;;;;;5032789;28;20317;-59
2020/12/05 01:49:03;;;;;;;26.37;18.53;;;5.90;99.90;;;;;;5032601;28;20229;-60
2020/12/05 01:51:30;;;;;;;28.33;18.97;;;5.90;99.90;;;;;;5032643;28;20206;-60
2020/12/05 01:53:57;;;;;;;27.50;17.87;;;5.90;99.90;;;;;;5032563;28;20209;-60
2020/12/05 01:56:25;;;;;;;28.63;18.17;;;6.00;99.90;;;;;;5032517;28;20296;-60
2020/12/05 01:58:51;;;;;;;26.70;18.33;;;6.00;99.90;;;;;;5032319;28;20203;-61
2020/12/05 02:01:21;;;;;;;28.60;19.33;;;5.90;99.90;;;;;;5032450;28;20217;-60
2020/12/05 02:03:50;;;;;;;25.50;18.40;;;5.80;99.90;;;;;;5032287;28;20237;-60
2020/12/05 02:06:26;;;;;;;29.67;19.07;;;5.90;99.90;;;;;;5032425;28;20732;-60
2020/12/05 02:09:00;;;;;;;29.87;19.27;;;5.90;99.90;;;;;;5032196;28;20206;-60
2020/12/05 02:11:33;;;;;;;31.80;20.07;;;6.00;99.90;;;;;;5032347;28;20211;-60
2020/12/05 02:14:05;;;;;;;31.57;19.70;;;6.00;99.90;;;;;;5031901;28;20221;-60
2020/12/05 02:16:32;;;;;;;32.27;19.67;;;6.00;99.90;;;;;;5032278;28;20256;-59
2020/12/05 02:19:00;;;;;;;29.53;19.40;;;6.00;99.90;;;;;;5031829;28;20622;-60
2020/12/05 02:21:29;;;;;;;29.63;18.57;;;6.00;99.90;;;;;;5032196;28;20214;-60
2020/12/05 02:23:57;;;;;;;31.27;19.57;;;6.00;99.90;;;;;;5031810;28;20210;-59
2020/12/05 02:26:23;;;;;;;29.13;20.17;;;6.00;99.90;;;;;;5032165;28;20233;-60
2020/12/05 02:28:50;;;;;;;29.27;20.10;;;6.00;99.90;;;;;;5031740;28;20213;-59
2020/12/05 02:31:16;;;;;;;32.43;19.57;;;6.10;99.90;;;;;;5031833;28;20284;-59
2020/12/05 02:33:43;;;;;;;26.97;18.77;;;6.10;99.90;;;;;;5031665;28;20225;-60
2020/12/05 02:36:11;;;;;;;29.40;19.43;;;6.10;99.90;;;;;;5031915;28;20643;-60
2020/12/05 02:38:47;;;;;;;30.33;19.90;;;6.10;99.90;;;;;;5031649;28;20660;-60
2020/12/05 02:41:14;;;;;;;29.53;18.47;;;6.10;99.90;;;;;;5031756;28;20740;-61
2020/12/05 02:43:40;;;;;;;30.90;19.23;;;6.10;99.90;;;;;;5031291;28;20344;-58
2020/12/05 02:46:07;;;;;;;28.73;19.73;;;6.10;99.90;;;;;;5031572;28;20713;-61
2020/12/05 02:48:33;;;;;;;27.77;18.23;;;6.00;99.90;;;;;;5031658;28;20728;-61
2020/12/05 02:50:59;;;;;;;27.77;17.93;;;5.90;99.90;;;;;;5031784;28;20229;-64
2020/12/05 02:53:25;;;;;;;30.93;18.70;;;5.60;99.90;;;;;;5031383;28;20213;-59
2020/12/05 02:55:52;;;;;;;26.57;18.60;;;5.50;99.90;;;;;;5055143;22;20234;-62
2020/12/05 02:58:18;;;;;;;28.87;19.07;;;5.50;99.90;;;;;;5031895;28;20214;-63
2020/12/05 03:00:45;;;;;;;28.53;19.10;;;5.50;99.90;;;;;;5032045;28;20206;-63
2020/12/05 03:03:11;;;;;;;28.17;18.77;;;5.60;99.90;;;;;;5031863;28;20585;-63
2020/12/05 03:05:38;;;;;;;27.87;17.93;;;5.50;99.90;;;;;;5031860;28;20210;-62
2020/12/05 03:08:04;;;;;;;28.43;19.20;;;5.50;99.90;;;;;;5031831;28;20210;-62
2020/12/05 03:10:30;;;;;;;30.63;18.53;;;5.40;99.90;;;;;;5032078;28;20226;-62
2020/12/05 03:12:56;;;;;;;28.27;18.97;;;5.40;99.90;;;;;;5031995;28;20210;-62
2020/12/05 03:15:23;;;;;;;26.77;18.67;;;5.50;99.90;;;;;;5031878;28;20213;-62
2020/12/05 03:17:49;;;;;;;27.93;18.87;;;5.50;99.90;;;;;;5031763;28;20256;-63
2020/12/05 03:20:15;;;;;;;32.53;19.57;;;5.50;99.90;;;;;;5031803;28;20210;-62
2020/12/05 03:22:41;;;;;;;28.13;18.63;;;5.50;99.90;;;;;;5031514;28;20574;-62
2020/12/05 03:25:09;;;;;;;27.47;19.00;;;5.50;99.90;;;;;;5031276;28;20210;-62
2020/12/05 03:27:35;;;;;;;28.30;19.13;;;5.50;99.90;;;;;;5031902;28;20222;-63
2020/12/05 03:30:01;;;;;;;29.23;18.13;;;5.50;99.90;;;;;;5031575;28;20608;-62
2020/12/05 03:32:30;;;;;;;31.27;19.03;;;5.50;99.90;;;;;;5031508;28;20206;-63
2020/12/05 03:34:57;;;;;;;27.57;18.60;;;5.40;99.90;;;;;;5031726;28;20800;-63
2020/12/05 03:37:24;;;;;;;30.17;19.87;;;5.40;99.90;;;;;;5031956;28;20222;-62
2020/12/05 03:39:51;;;;;;;28.37;19.57;;;5.40;99.90;;;;;;5031835;28;20206;-63
2020/12/05 03:42:17;;;;;;;27.40;18.53;;;5.50;99.90;;;;;;5031831;28;20206;-62
2020/12/05 03:44:43;;;;;;;26.23;18.07;;;5.50;99.90;;;;;;5031500;28;20225;-62
2020/12/05 03:47:09;;;;;;;28.73;18.20;;;5.50;99.90;;;;;;5031482;28;20225;-62
2020/12/05 03:49:37;;;;;;;28.67;18.23;;;5.50;99.90;;;;;;5031529;28;20245;-62
2020/12/05 03:52:04;;;;;;;30.57;19.60;;;5.40;99.90;;;;;;5031483;28;20207;-63
2020/12/05 03:54:30;;;;;;;24.80;17.30;;;5.40;99.90;;;;;;5031595;28;20256;-63
2020/12/05 03:56:57;;;;;;;21.77;16.10;;;5.30;99.90;;;;;;5031463;28;20234;-62
2020/12/05 03:59:23;;;;;;;24.27;16.13;;;5.30;99.90;;;;;;5031424;28;20662;-62
2020/12/05 04:01:49;;;;;;;22.77;16.17;;;5.30;99.90;;;;;;5031640;28;20268;-63
2020/12/05 04:04:15;;;;;;;23.63;15.87;;;5.30;99.90;;;;;;5031376;28;20210;-62
2020/12/05 04:06:42;;;;;;;18.47;13.37;;;5.30;99.90;;;;;;5031836;28;20234;-62
2020/12/05 04:09:09;;;;;;;18.30;13.23;;;5.30;99.90;;;;;;5031053;28;20685;-63
2020/12/05 04:11:37;;;;;;;17.97;12.80;;;5.40;99.90;;;;;;5031494;28;20207;-62
2020/12/05 04:14:04;;;;;;;16.57;11.70;;;5.30;99.90;;;;;;5031243;28;20202;-63
2020/12/05 04:16:30;;;;;;;16.57;12.40;;;5.30;99.90;;;;;;5031435;28;20245;-62
2020/12/05 04:18:56;;;;;;;16.07;12.17;;;5.30;99.90;;;;;;5031197;28;20210;-62
2020/12/05 04:21:23;;;;;;;14.77;11.03;;;5.40;99.90;;;;;;5031703;28;20283;-62
2020/12/05 04:23:50;;;;;;;16.63;12.33;;;5.40;99.90;;;;;;5031733;28;20574;-62
2020/12/05 04:26:16;;;;;;;16.57;11.10;;;5.40;99.90;;;;;;5031303;28;20744;-62
2020/12/05 04:28:42;;;;;;;14.73;11.77;;;5.40;99.90;;;;;;5031158;28;20210;-62
2020/12/05 04:31:08;;;;;;;15.47;12.60;;;5.40;99.90;;;;;;5031457;28;20230;-62
2020/12/05 04:33:34;;;;;;;16.17;12.23;;;5.40;99.90;;;;;;5031390;28;20588;-62
2020/12/05 04:36:01;;;;;;;14.30;11.50;;;5.20;99.90;;;;;;5033003;28;20245;-62
2020/12/05 04:38:27;;;;;;;14.27;10.73;;;5.20;99.90;;;;;;5035109;28;20260;-62
2020/12/05 04:40:57;;;;;;;13.50;11.07;;;5.30;99.90;;;;;;5035367;28;20390;-63
2020/12/05 04:43:24;;;;;;;15.00;9.90;;;5.30;99.90;;;;;;5034736;28;20210;-62
2020/12/05 04:45:51;;;;;;;12.60;9.97;;;5.40;99.90;;;;;;5034859;28;20234;-63
2020/12/05 04:48:18;;;;;;;12.13;9.60;;;5.40;99.90;;;;;;5034484;28;20233;-63
2020/12/05 04:50:46;;;;;;;11.80;9.27;;;5.50;99.90;;;;;;5034370;28;20229;-62
2020/12/05 04:53:16;;;;;;;15.20;10.60;;;5.50;99.90;;;;;;5035037;28;20210;-62
2020/12/05 04:55:43;;;;;;;15.97;11.47;;;5.40;99.90;;;;;;5034293;28;20688;-62
2020/12/05 04:58:17;;;;;;;15.47;11.67;;;5.20;99.90;;;;;;5034334;28;20678;-61
2020/12/05 05:00:44;;;;;;;15.97;12.10;;;4.90;99.90;;;;;;5034884;28;20236;-62
2020/12/05 05:03:15;;;;;;;15.03;11.27;;;4.80;99.90;;;;;;5034948;28;20206;-62
2020/12/05 05:05:41;;;;;;;16.77;12.10;;;4.70;99.90;;;;;;5035507;28;20210;-62
2020/12/05 05:08:07;;;;;;;14.13;11.43;;;4.50;99.90;;;;;;5035009;28;20209;-61
2020/12/05 05:10:35;;;;;;;16.43;11.77;;;4.40;99.90;;;;;;5034774;28;20586;-62
2020/12/05 05:13:12;;;;;;;16.57;12.23;;;4.50;99.90;;;;;;5034991;28;20229;-62
2020/12/05 05:15:39;;;;;;;15.97;11.83;;;4.50;99.90;;;;;;5034321;28;20213;-62
2020/12/05 05:18:07;;;;;;;15.23;11.00;;;4.60;99.90;;;;;;5034616;28;20210;-63
2020/12/05 05:20:39;;;;;;;14.30;11.47;;;4.70;99.90;;;;;;5034249;28;20720;-62
2020/12/05 05:23:14;;;;;;;16.53;12.13;;;4.70;99.90;;;;;;5034310;28;20202;-63
2020/12/05 05:25:51;;;;;;;16.50;11.20;;;4.60;99.90;;;;;;5033960;28;20233;-62
2020/12/05 05:28:19;;;;;;;16.43;12.20;;;4.70;99.90;;;;;;5033745;28;20205;-62
2020/12/05 05:30:55;;;;;;;15.83;11.10;;;4.70;99.90;;;;;;5034196;28;20237;-63
2020/12/05 05:33:22;;;;;;;18.00;12.33;;;4.70;99.90;;;;;;5034187;28;20666;-62
2020/12/05 05:35:48;;;;;;;16.73;11.50;;;4.70;99.90;;;;;;5033771;28;20230;-62
2020/12/05 05:38:21;;;;;;;14.63;11.23;;;4.80;99.90;;;;;;5033735;28;20675;-62
2020/12/05 05:40:47;;;;;;;14.00;11.03;;;4.90;99.90;;;;;;5034245;28;20203;-62
2020/12/05 05:43:18;;;;;;;13.97;10.60;;;5.00;99.90;;;;;;5034279;28;20297;-62
2020/12/05 05:45:45;;;;;;;11.93;9.70;;;5.20;99.90;;;;;;5033690;28;20631;-62
2020/12/05 05:48:13;;;;;;;13.70;10.23;;;5.30;99.90;;;;;;5033772;28;20230;-62
2020/12/05 05:50:39;;;;;;;13.13;11.13;;;5.30;99.90;;;;;;5034022;28;20233;-62
2020/12/05 05:53:07;;;;;;;13.43;10.30;;;5.30;99.90;;;;;;5034412;28;20241;-63
2020/12/05 05:55:42;;;;;;;15.63;11.53;;;5.30;99.90;;;;;;5034193;28;20210;-63
2020/12/05 05:58:10;;;;;;;17.30;11.10;;;5.30;99.90;;;;;;5034140;28;20206;-62
2020/12/05 06:00:38;;;;;;;15.87;13.13;;;5.20;99.90;;;;;;5034431;28;20202;-63
2020/12/05 06:03:16;;;;;;;14.07;10.80;;;5.20;99.90;;;;;;5034746;28;20268;-62
2020/12/05 06:05:45;;;;;;;14.23;10.47;;;5.00;99.90;;;;;;5034095;28;20206;-63
2020/12/05 06:08:19;;;;;;;12.27;9.07;;;4.90;99.90;;;;;;5033937;28;20206;-63
2020/12/05 06:10:52;;;;;;;13.53;10.90;;;4.80;99.90;;;;;;5034107;28;20276;-63
2020/12/05 06:13:19;;;;;;;10.83;9.17;;;4.70;99.90;;;;;;5033671;28;20611;-64
2020/12/05 06:15:47;;;;;;;11.33;8.57;;;4.70;99.90;;;;;;5034020;28;20268;-63
2020/12/05 06:18:14;;;;;;;10.33;8.57;;;4.80;99.90;;;;;;5034163;28;20210;-62
2020/12/05 06:20:44;;;;;;;17.03;10.73;;;4.90;99.90;;;;;;5032570;28;20209;-62
2020/12/05 06:23:16;;;;;;;10.30;8.47;;;5.00;99.90;;;;;;5032888;28;20206;-62
2020/12/05 06:25:42;;;;;;;11.13;9.57;;;5.00;99.90;;;;;;5032142;28;20631;-62
2020/12/05 06:28:11;;;;;;;30.17;18.90;;;5.00;99.90;;;;;;5031867;28;20674;-63
2020/12/05 06:30:37;;;;;;;13.17;10.43;;;5.00;99.90;;;;;;5031985;28;20635;-62
2020/12/05 06:33:03;;;;;;;22.90;15.87;;;5.10;99.90;;;;;;5032082;28;20210;-63
2020/12/05 06:35:32;;;;;;;12.90;9.63;;;5.10;99.90;;;;;;5031762;28;20260;-63
2020/12/05 06:37:59;;;;;;;12.17;9.07;;;5.30;99.90;;;;;;5031833;28;20207;-63
2020/12/05 06:40:26;;;;;;;16.73;10.97;;;5.30;99.90;;;;;;5032357;28;20225;-63
2020/12/05 06:42:54;;;;;;;11.67;8.60;;;5.30;99.90;;;;;;5032153;28;20213;-63
2020/12/05 06:45:39;;;;;;;11.53;9.60;;;5.40;99.90;;;;;;5031928;28;20206;-63
2020/12/05 06:48:31;;;;;;;7.40;6.60;;;5.30;99.90;;;;;;5032175;28;20245;-63
2020/12/05 06:50:57;;;;;;;7.27;6.47;;;5.20;99.90;;;;;;5032163;28;20261;-63
2020/12/05 06:53:31;;;;;;;7.30;6.57;;;5.20;99.90;;;;;;5031849;28;20216;-62
2020/12/05 06:55:57;;;;;;;7.40;6.67;;;5.20;99.90;;;;;;5031911;28;20276;-63
2020/12/05 06:58:25;;;;;;;10.07;7.60;;;5.10;99.90;;;;;;5031489;28;20601;-62
2020/12/05 07:00:51;;;;;;;15.93;10.73;;;5.10;99.90;;;;;;5031908;28;20203;-62
2020/12/05 07:03:25;;;;;;;16.13;11.17;;;5.00;99.90;;;;;;5031813;28;20214;-63
2020/12/05 07:05:51;;;;;;;16.73;10.80;;;4.90;99.90;;;;;;5031485;28;20321;-63
2020/12/05 07:08:29;;;;;;;14.23;9.93;;;4.80;99.90;;;;;;5031365;28;20210;-63
2020/12/05 07:11:00;;;;;;;17.33;11.03;;;4.70;99.90;;;;;;5032686;28;20225;-63
2020/12/05 07:13:29;;;;;;;11.70;9.50;;;4.70;99.90;;;;;;5032491;28;20279;-61
2020/12/05 07:16:16;;;;;;;12.47;8.97;;;4.70;99.90;;;;;;5032545;28;20246;-62
2020/12/05 07:18:44;;;;;;;9.87;7.40;;;4.70;99.90;;;;;;5032230;28;20607;-61
2020/12/05 07:21:11;;;;;;;10.13;7.03;;;4.80;99.90;;;;;;5032035;28;20230;-60
2020/12/05 07:23:37;;;;;;;11.97;9.57;;;4.90;99.90;;;;;;5031738;28;20236;-61
2020/12/05 07:26:05;;;;;;;14.70;10.60;;;4.90;99.90;;;;;;5031424;28;20233;-61
2020/12/05 07:28:32;;;;;;;13.13;9.87;;;4.90;99.90;;;;;;5031865;28;20696;-60
2020/12/05 07:30:58;;;;;;;13.13;10.53;;;4.70;99.90;;;;;;5032036;28;20222;-61
2020/12/05 07:33:25;;;;;;;16.90;11.60;;;4.50;99.90;;;;;;5031427;28;20685;-60
2020/12/05 07:35:59;;;;;;;12.13;9.63;;;4.30;99.90;;;;;;5031681;28;20226;-60
2020/12/05 07:38:28;;;;;;;11.97;8.87;;;4.30;99.90;;;;;;5031833;28;20202;-58
2020/12/05 07:40:54;;;;;;;10.47;8.73;;;4.30;99.90;;;;;;5031716;28;20203;-59
2020/12/05 07:43:21;;;;;;;12.77;9.93;;;4.40;99.90;;;;;;5032023;28;20217;-59
2020/12/05 07:45:49;;;;;;;12.87;9.27;;;4.50;99.90;;;;;;5031478;28;20608;-59
2020/12/05 07:48:17;;;;;;;13.73;9.93;;;4.60;99.90;;;;;;5031964;28;20617;-59
2020/12/05 07:50:45;;;;;;;16.33;10.77;;;4.50;99.90;;;;;;5031976;28;20230;-59
2020/12/05 07:53:28;;;;;;;11.93;8.90;;;4.50;99.90;;;;;;5032292;28;20216;-60
2020/12/05 07:55:55;;;;;;;11.80;8.87;;;4.40;99.90;;;;;;5031704;28;20241;-60
2020/12/05 07:58:22;;;;;;;11.13;9.10;;;4.40;99.90;;;;;;5031603;28;20220;-58
2020/12/05 08:00:52;;;;;;;10.97;9.17;;;4.50;99.90;;;;;;5031847;28;20589;-59
2020/12/05 08:03:55;;;;;;;14.03;10.20;;;4.60;99.90;;;;;;5031609;28;20206;-59
2020/12/05 08:06:36;;;;;;;12.57;9.60;;;4.70;99.90;;;;;;5031556;28;20230;-61
2020/12/05 08:09:05;;;;;;;12.43;9.40;;;4.80;99.90;;;;;;5031304;28;20209;-62
2020/12/05 08:11:40;;;;;;;12.40;9.97;;;4.90;99.90;;;;;;5033444;28;20599;-63
2020/12/05 08:14:10;;;;;;;12.70;9.43;;;5.00;99.90;;;;;;5034486;28;20248;-64
2020/12/05 08:16:38;;;;;;;10.17;8.27;;;5.00;99.90;;;;;;5034586;28;20238;-61
2020/12/05 08:19:04;;;;;;;13.53;8.87;;;5.00;99.90;;;;;;5034196;28;20569;-63
2020/12/05 08:21:30;;;;;;;10.10;8.20;;;4.90;99.90;;;;;;5034736;28;20198;-64
2020/12/05 08:24:06;;;;;;;10.40;8.77;;;4.90;99.90;;;;;;5034271;28;20233;-63
2020/12/05 08:26:32;;;;;;;11.03;9.07;;;4.80;99.90;;;;;;5034481;28;20233;-63
2020/12/05 08:28:59;;;;;;;11.70;9.93;;;4.80;99.90;;;;;;5034145;28;20213;-64
2020/12/05 08:31:27;;;;;;;12.20;10.07;;;4.90;99.90;;;;;;5033971;28;20288;-63
2020/12/05 08:33:54;;;;;;;10.50;8.57;;;5.00;99.90;;;;;;5033808;28;20260;-63
2020/12/05 08:36:22;;;;;;;10.67;8.57;;;5.00;99.90;;;;;;5034197;28;20240;-63
2020/12/05 08:38:49;;;;;;;9.70;7.93;;;4.90;99.90;;;;;;5033806;28;20581;-60
2020/12/05 08:41:16;;;;;;;10.37;8.23;;;4.80;99.90;;;;;;5034149;28;20210;-62
2020/12/05 08:43:42;;;;;;;11.30;8.90;;;4.80;99.90;;;;;;5033739;28;20494;-62
2020/12/05 08:46:16;;;;;;;14.40;10.20;;;4.80;99.90;;;;;;5033588;28;20237;-62
2020/12/05 08:48:43;;;;;;;15.40;11.93;;;4.80;99.90;;;;;;5033887;28;20202;-62
2020/12/05 08:51:09;;;;;;;14.63;11.27;;;4.90;99.90;;;;;;5033891;28;20233;-62
2020/12/05 08:53:35;;;;;;;14.30;11.37;;;4.90;99.90;;;;;;5033639;28;20215;-62
2020/12/05 08:56:02;;;;;;;13.97;10.90;;;4.90;99.90;;;;;;5057415;22;20238;-64
2020/12/05 08:58:42;;;;;;;13.63;9.40;;;4.90;99.90;;;;;;5033120;28;20218;-64
2020/12/05 09:01:08;;;;;;;10.73;9.63;;;4.90;99.90;;;;;;5033291;28;20257;-64
2020/12/05 09:03:37;;;;;;;12.80;9.93;;;4.90;99.90;;;;;;5033265;28;20221;-64
2020/12/05 09:06:04;;;;;;;12.87;8.73;;;4.90;99.90;;;;;;5033892;28;20446;-64
2020/12/05 09:08:31;;;;;;;11.43;8.73;;;5.00;99.90;;;;;;5033238;28;20614;-64
2020/12/05 09:10:57;;;;;;;11.07;9.17;;;5.00;99.90;;;;;;5033077;28;20241;-65
2020/12/05 09:13:24;;;;;;;11.57;9.23;;;5.00;99.90;;;;;;5033206;28;20210;-64
2020/12/05 09:15:56;;;;;;;11.43;8.93;;;5.00;99.90;;;;;;5033155;28;20276;-64
2020/12/05 09:18:22;;;;;;;13.10;8.80;;;5.00;99.90;;;;;;5032781;28;20228;-65
2020/12/05 09:20:48;;;;;;;15.40;11.20;;;5.00;99.90;;;;;;5032732;28;20205;-64
2020/12/05 09:23:26;;;;;;;14.17;10.57;;;5.00;99.90;;;;;;5034154;28;20211;-64
2020/12/05 09:26:00;;;;;;;14.43;11.30;;;5.00;99.90;;;;;;5034476;28;20213;-64
2020/12/05 09:28:27;;;;;;;12.63;9.03;;;5.00;99.90;;;;;;5034121;28;20201;-64
2020/12/05 09:30:55;;;;;;;15.17;9.70;;;5.00;99.90;;;;;;5033150;28;20226;-64
2020/12/05 09:33:21;;;;;;;15.17;10.00;;;4.90;99.90;;;;;;5032843;28;20241;-64
2020/12/05 09:35:48;;;;;;;11.63;9.17;;;4.80;99.90;;;;;;5032465;28;20268;-64
2020/12/05 09:38:16;;;;;;;14.20;9.53;;;4.80;99.90;;;;;;5032391;28;20283;-64
2020/12/05 09:40:43;;;;;;;11.77;9.10;;;4.80;99.90;;;;;;5033414;28;20226;-64
2020/12/05 09:43:10;;;;;;;13.30;9.87;;;4.70;99.90;;;;;;5032663;28;20632;-64
2020/12/05 09:45:36;;;;;;;11.67;8.80;;;4.60;99.90;;;;;;5032458;28;20206;-61
2020/12/05 09:48:03;;;;;;;12.50;10.02;;;4.60;99.90;;;;;;5031062;28;20448;-63
2020/12/05 09:50:30;;;;;;;10.80;8.50;;;4.70;99.90;;;;;;5032929;28;20312;-61
2020/12/05 09:52:57;;;;;;;13.60;8.13;;;4.70;99.90;;;;;;5051364;28;20696;-61
2020/12/05 09:55:24;;;;;;;11.03;8.43;;;4.80;99.90;;;;;;5052232;28;20232;-63
2020/12/05 09:57:50;;;;;;;10.87;7.90;;;4.80;99.90;;;;;;5051875;28;20234;-63
2020/12/05 10:00:16;;;;;;;13.10;9.57;;;4.80;99.90;;;;;;5052077;28;20296;-64
2020/12/05 10:02:42;;;;;;;10.87;7.77;;;4.90;99.90;;;;;;5051759;28;20696;-64
2020/12/05 10:05:09;;;;;;;10.67;7.83;;;4.90;99.90;;;;;;5051230;28;20213;-64
2020/12/05 10:07:36;;;;;;;10.27;8.27;;;5.10;99.90;;;;;;5051837;28;20253;-65
2020/12/05 10:10:03;;;;;;;8.57;7.60;;;5.10;99.90;;;;;;5051676;28;20737;-63
2020/12/05 10:12:31;;;;;;;11.00;8.20;;;5.00;99.90;;;;;;5051804;28;20205;-63
2020/12/05 10:14:58;;;;;;;11.90;8.53;;;5.10;99.90;;;;;;5051583;28;20673;-64
2020/12/05 10:17:24;;;;;;;13.67;8.93;;;5.10;99.90;;;;;;5051977;28;20236;-62
2020/12/05 10:19:50;;;;;;;9.30;7.60;;;5.20;99.90;;;;;;5051294;28;20212;-63
2020/12/05 10:22:16;;;;;;;9.73;7.73;;;5.30;99.90;;;;;;5051890;28;20267;-63
2020/12/05 10:24:42;;;;;;;9.37;7.43;;;5.40;99.90;;;;;;5051560;28;20205;-63
2020/12/05 10:27:09;;;;;;;9.77;7.60;;;5.50;99.90;;;;;;5051629;28;20283;-63
2020/12/05 10:29:35;;;;;;;10.67;7.37;;;5.50;99.90;;;;;;5051414;28;20202;-63
2020/12/05 10:32:02;;;;;;;8.90;7.00;;;5.40;99.90;;;;;;5051576;28;20221;-63
2020/12/05 10:34:28;;;;;;;8.90;6.73;;;5.40;99.90;;;;;;5050396;28;20274;-63
2020/12/05 10:36:55;;;;;;;9.37;7.03;;;5.40;99.90;;;;;;5051857;28;20233;-63
2020/12/05 10:39:21;;;;;;;8.93;7.10;;;5.30;99.90;;;;;;5051271;28;20346;-63
2020/12/05 10:41:49;;;;;;;10.70;7.23;;;5.30;99.90;;;;;;5051811;28;20209;-63
2020/12/05 10:44:15;;;;;;;7.87;6.50;;;5.10;99.90;;;;;;5051130;28;20665;-63
2020/12/05 10:46:43;;;;;;;9.17;7.27;;;4.90;99.90;;;;;;5051421;28;20233;-63
2020/12/05 10:49:10;;;;;;;8.43;6.90;;;4.80;99.90;;;;;;5051349;28;20205;-63
2020/12/05 10:51:37;;;;;;;9.00;7.90;;;4.90;99.90;;;;;;5041249;28;20453;-62
2020/12/05 10:54:04;;;;;;;10.40;7.73;;;5.00;99.90;;;;;;5031532;28;20268;-60
2020/12/05 10:56:30;;;;;;;10.07;7.87;;;5.00;99.90;;;;;;5031000;28;20612;-62
2020/12/05 10:58:56;;;;;;;9.83;7.63;;;5.00;99.90;;;;;;5031385;28;20686;-63
2020/12/05 11:01:23;;;;;;;9.50;7.50;;;5.00;99.90;;;;;;5030862;28;20202;-63
2020/12/05 11:03:50;;;;;;;9.43;7.67;;;4.90;99.90;;;;;;5031271;28;20210;-63
2020/12/05 11:06:20;;;;;;;10.87;9.13;;;4.90;99.90;;;;;;5031649;28;20230;-62
2020/12/05 11:08:46;;;;;;;10.53;8.70;;;4.90;99.90;;;;;;5030918;28;20256;-62
2020/12/05 11:11:13;;;;;;;11.83;8.70;;;5.00;99.90;;;;;;5030873;28;20222;-63
2020/12/05 11:13:39;;;;;;;9.13;7.73;;;5.00;99.90;;;;;;5030731;28;20217;-63
2020/12/05 11:16:05;;;;;;;13.43;8.93;;;5.00;99.90;;;;;;5030544;28;20209;-62
2020/12/05 11:18:31;;;;;;;11.90;8.93;;;5.00;99.90;;;;;;5030812;28;20214;-61
2020/12/05 11:20:58;;;;;;;10.83;8.73;;;5.10;99.90;;;;;;5030681;28;20209;-63
2020/12/05 11:23:24;;;;;;;10.83;8.37;;;5.30;99.90;;;;;;5031071;28;20206;-64
2020/12/05 11:25:50;;;;;;;13.87;11.10;;;5.30;99.90;;;;;;5016472;28;20226;-63
2020/12/05 11:28:16;;;;;;;9.77;8.77;;;5.30;99.90;;;;;;5010354;28;20206;-62
2020/12/05 11:30:43;;;;;;;10.60;8.17;;;5.40;99.90;;;;;;5010633;28;20301;-63
2020/12/05 11:33:09;;;;;;;9.53;7.63;;;5.40;99.90;;;;;;5010914;28;20226;-63
2020/12/05 11:35:35;;;;;;;11.10;7.60;;;5.50;99.90;;;;;;5010283;28;20206;-63
2020/12/05 11:38:03;;;;;;;9.77;7.40;;;5.60;99.90;;;;;;5009945;28;20740;-63
2020/12/05 11:40:29;;;;;;;9.10;7.13;;;5.70;99.90;;;;;;5010103;28;20203;-64
2020/12/05 11:42:55;;;;;;;7.73;6.63;;;5.70;99.90;;;;;;5009621;28;20218;-61
2020/12/05 11:45:22;;;;;;;8.50;7.13;;;5.60;99.90;;;;;;5009525;28;20213;-64
2020/12/05 11:47:48;;;;;;;9.03;7.40;;;5.50;99.90;;;;;;5010294;28;20653;-63
2020/12/05 11:50:14;;;;;;;9.37;7.57;;;5.50;99.90;;;;;;5010510;28;20572;-63
2020/12/05 11:52:40;;;;;;;7.60;6.80;;;5.50;99.90;;;;;;5011605;28;20219;-63
2020/12/05 11:55:07;;;;;;;9.73;7.43;;;5.60;99.90;;;;;;5011218;28;20214;-63
2020/12/05 11:57:33;;;;;;;8.83;7.30;;;5.70;99.90;;;;;;5010783;28;20235;-62
2020/12/05 12:00:00;;;;;;;9.77;7.40;;;5.70;99.90;;;;;;5009937;28;20207;-63
2020/12/05 12:02:26;;;;;;;12.13;7.87;;;5.60;99.90;;;;;;5010826;28;20478;-62
2020/12/05 12:04:52;;;;;;;10.43;8.13;;;5.60;99.90;;;;;;5011043;28;20269;-62
2020/12/05 12:07:18;;;;;;;11.10;7.73;;;5.50;99.90;;;;;;5010453;28;20230;-63
2020/12/05 12:09:44;;;;;;;9.90;8.23;;;5.40;99.90;;;;;;5010324;28;20215;-61
2020/12/05 12:12:11;;;;;;;9.60;7.30;;;5.20;99.90;;;;;;5010697;28;20289;-62
2020/12/05 12:14:40;;;;;;;9.77;7.53;;;5.30;99.90;;;;;;5012648;28;20209;-62
2020/12/05 12:17:06;;;;;;;10.10;7.70;;;5.40;99.90;;;;;;5013599;28;20238;-63
2020/12/05 12:19:33;;;;;;;12.40;8.60;;;5.40;99.90;;;;;;5012625;28;20338;-61
2020/12/05 12:22:01;;;;;;;11.43;8.93;;;5.60;99.90;;;;;;5013045;28;20679;-63
2020/12/05 12:24:29;;;;;;;10.67;8.30;;;5.60;99.90;;;;;;5018259;28;20206;-61
2020/12/05 12:26:56;;;;;;;8.97;7.37;;;5.80;99.90;;;;;;5023321;28;20711;-65
2020/12/05 12:29:23;;;;;;;8.97;7.47;;;5.90;99.90;;;;;;5021534;28;20215;-66
2020/12/05 12:31:52;;;;;;;9.23;6.80;;;5.90;99.90;;;;;;5019102;28;20699;-65
2020/12/05 12:34:19;;;;;;;8.50;7.10;;;6.00;99.90;;;;;;5018299;28;20234;-63
2020/12/05 12:36:47;;;;;;;7.57;5.87;;;6.10;99.90;;;;;;5024442;28;20687;-63
2020/12/05 12:39:15;;;;;;;7.00;5.90;;;6.20;99.90;;;;;;5022511;28;20270;-64
2020/12/05 12:41:44;;;;;;;7.37;5.97;;;6.30;99.90;;;;;;5018756;28;20702;-64
2020/12/05 12:44:11;;;;;;;6.70;5.77;;;6.30;99.90;;;;;;5024259;28;20234;-63
2020/12/05 12:46:48;;;;;;;7.43;6.07;;;6.40;99.90;;;;;;5023055;28;20298;-65